Time;durP1;ratioP1;P1;durP2;ratioP2;P2;SDS_P1;SDS_P2;PMS_P1;PMS_P2;Temp;Humidity;BMP_temperature;BMP_pressure;BME280_temperature;BME280_humidity;BME280_pressure;Samples;Min_cycle;Max_cycle;Signal;HPM_P1;HPM_P2
2022/06/07 00:00:57;;;;;;;5.55;2.55;;;19.70;79.60;;;;;;5032935;28;20029;-67
2022/06/07 00:03:22;;;;;;;4.38;2.30;;;19.80;79.30;;;;;;5032669;28;20025;-68
2022/06/07 00:05:49;;;;;;;9.23;3.28;;;19.70;79.10;;;;;;5032682;28;20061;-66
2022/06/07 00:08:16;;;;;;;6.10;2.83;;;19.70;79.30;;;;;;5032941;28;20128;-61
2022/06/07 00:10:43;;;;;;;5.75;2.85;;;19.60;79.10;;;;;;5032354;28;20086;-60
2022/06/07 00:13:10;;;;;;;4.25;2.35;;;19.60;79.10;;;;;;5032293;28;20120;-67
2022/06/07 00:15:37;;;;;;;5.82;2.65;;;19.60;79.10;;;;;;5032640;28;20168;-68
2022/06/07 00:18:03;;;;;;;5.55;2.45;;;19.60;79.20;;;;;;5034307;28;20021;-61
2022/06/07 00:20:29;;;;;;;5.10;2.03;;;19.60;79.20;;;;;;5036676;28;20021;-67
2022/06/07 00:22:55;;;;;;;6.70;2.30;;;19.60;79.10;;;;;;5036130;28;20032;-64
2022/06/07 00:25:22;;;;;;;5.78;2.13;;;19.50;79.10;;;;;;5036162;28;20041;-67
2022/06/07 00:27:48;;;;;;;5.97;2.47;;;19.50;79.30;;;;;;5036538;28;20037;-67
2022/06/07 00:30:14;;;;;;;4.20;2.00;;;19.50;79.00;;;;;;5036507;28;20021;-67
2022/06/07 00:32:41;;;;;;;5.68;2.30;;;19.50;79.10;;;;;;5036634;28;20049;-66
2022/06/07 00:35:08;;;;;;;4.10;2.03;;;19.50;79.00;;;;;;5036272;28;20018;-65
2022/06/07 00:37:34;;;;;;;3.50;2.20;;;19.50;78.90;;;;;;5036578;28;20031;-66
2022/06/07 00:39:59;;;;;;;5.00;2.15;;;19.50;79.20;;;;;;5035869;28;20092;-62
2022/06/07 00:42:25;;;;;;;5.07;2.15;;;19.40;79.30;;;;;;5036120;28;20029;-61
2022/06/07 00:44:51;;;;;;;4.47;1.92;;;19.40;79.10;;;;;;5036101;28;20033;-62
2022/06/07 00:47:23;;;;;;;4.13;2.05;;;19.40;79.10;;;;;;5036118;28;20450;-61
2022/06/07 00:50:05;;;;;;;5.70;2.10;;;19.40;79.20;;;;;;5036302;28;20041;-63
2022/06/07 00:52:33;;;;;;;3.75;1.83;;;19.40;79.40;;;;;;5036120;28;20025;-62
2022/06/07 00:54:59;;;;;;;3.88;2.33;;;19.40;79.40;;;;;;5035789;28;20025;-63
2022/06/07 00:57:26;;;;;;;2.28;1.85;;;19.40;79.20;;;;;;5018152;28;20489;-62
2022/06/07 00:59:52;;;;;;;4.13;2.30;;;19.30;79.20;;;;;;5036069;28;20063;-63
2022/06/07 01:02:19;;;;;;;6.30;2.22;;;19.30;79.20;;;;;;5036068;28;20022;-61
2022/06/07 01:04:44;;;;;;;6.05;2.28;;;19.30;78.90;;;;;;5035910;28;20056;-61
2022/06/07 01:12:39;;;;;;;6.82;2.45;;;19.30;79.30;;;;;;5035664;28;20068;-61
2022/06/07 01:15:07;;;;;;;4.47;2.10;;;19.20;79.30;;;;;;5035431;28;20080;-68
2022/06/07 01:17:32;;;;;;;4.45;1.92;;;19.20;79.20;;;;;;5035643;28;20022;-61
2022/06/07 01:19:58;;;;;;;4.10;1.88;;;19.20;79.20;;;;;;5035691;28;20378;-62
2022/06/07 01:22:24;;;;;;;6.53;2.35;;;19.20;79.60;;;;;;5035549;28;20021;-61
2022/06/07 01:24:50;;;;;;;5.35;2.15;;;19.20;79.60;;;;;;5035299;28;20061;-61
2022/06/07 01:27:15;;;;;;;6.15;2.40;;;19.20;79.50;;;;;;5035625;28;20030;-61
2022/06/07 01:29:42;;;;;;;7.15;2.47;;;19.20;79.40;;;;;;5034942;28;20029;-61
2022/06/07 01:32:09;;;;;;;4.78;2.00;;;19.20;79.30;;;;;;5035284;28;20053;-60
2022/06/07 01:34:38;;;;;;;4.03;1.75;;;19.20;79.30;;;;;;5035371;28;20032;-60
2022/06/07 01:37:04;;;;;;;6.70;2.10;;;19.10;79.80;;;;;;5035280;28;20091;-61
2022/06/07 01:42:14;;;;;;;5.55;2.10;;;19.10;79.80;;;;;;5035508;28;20040;-62
2022/06/07 01:44:43;;;;;;;7.95;2.42;;;19.00;79.80;;;;;;5035008;28;20107;-65
2022/06/07 01:47:11;;;;;;;3.95;2.10;;;19.00;80.50;;;;;;5034706;28;20044;-61
2022/06/07 01:49:38;;;;;;;6.15;2.30;;;19.00;79.90;;;;;;5035423;28;20021;-63
2022/06/07 01:52:05;;;;;;;4.30;2.67;;;19.00;79.80;;;;;;5034907;28;20087;-62
2022/06/07 01:54:31;;;;;;;4.22;2.65;;;19.00;79.80;;;;;;5034873;28;20109;-60
2022/06/07 01:56:56;;;;;;;4.40;2.38;;;19.00;79.80;;;;;;5034924;28;20056;-61
2022/06/07 01:59:22;;;;;;;5.53;2.28;;;19.00;79.80;;;;;;5034912;28;20025;-60
2022/06/07 02:01:49;;;;;;;6.22;2.45;;;18.90;80.00;;;;;;5034656;28;20048;-61
2022/06/07 02:04:15;;;;;;;6.05;2.58;;;18.90;79.80;;;;;;5034842;28;20083;-60
2022/06/07 02:06:41;;;;;;;3.42;2.40;;;18.90;80.10;;;;;;5034173;28;20048;-61
2022/06/07 02:09:08;;;;;;;7.25;2.80;;;18.90;79.90;;;;;;5034661;28;20037;-62
2022/06/07 02:11:36;;;;;;;4.30;2.40;;;18.90;80.00;;;;;;5034711;28;20017;-62
2022/06/07 02:14:01;;;;;;;5.43;2.55;;;18.90;80.10;;;;;;5034139;28;20032;-65
2022/06/07 02:16:27;;;;;;;4.82;2.58;;;18.80;80.20;;;;;;5034073;28;20049;-66
2022/06/07 02:18:52;;;;;;;7.90;2.65;;;18.80;80.40;;;;;;5034480;28;20024;-61
2022/06/07 02:21:21;;;;;;;8.00;2.80;;;18.80;80.50;;;;;;5034207;28;20032;-60
2022/06/07 02:23:47;;;;;;;4.63;2.67;;;18.80;80.90;;;;;;5034261;28;20093;-60
2022/06/07 02:26:17;;;;;;;4.45;2.53;;;18.70;80.60;;;;;;5034251;28;20044;-61
2022/06/07 02:28:48;;;;;;;5.07;2.90;;;18.70;80.80;;;;;;5033995;28;20076;-60
2022/06/07 02:31:16;;;;;;;3.92;2.30;;;18.70;80.60;;;;;;5034224;28;20052;-61
2022/06/07 02:33:42;;;;;;;4.78;2.80;;;18.70;80.70;;;;;;5016651;28;20371;-66
2022/06/07 02:36:09;;;;;;;4.78;2.42;;;18.70;80.80;;;;;;5033764;28;20429;-64
2022/06/07 02:38:35;;;;;;;4.57;2.42;;;18.70;80.80;;;;;;5033954;28;20048;-62
2022/06/07 02:41:03;;;;;;;4.72;2.58;;;18.70;81.00;;;;;;5034010;28;20017;-61
2022/06/07 02:43:29;;;;;;;4.15;2.80;;;18.70;80.90;;;;;;5034071;28;20029;-62
2022/06/07 02:45:56;;;;;;;7.10;2.92;;;18.70;81.10;;;;;;5034143;28;20438;-62
2022/06/07 02:48:21;;;;;;;6.03;2.70;;;18.60;81.00;;;;;;5033408;28;20117;-63
2022/06/07 02:50:47;;;;;;;5.07;2.92;;;18.60;81.30;;;;;;5033724;28;20100;-61
2022/06/07 02:53:13;;;;;;;5.38;3.35;;;18.60;81.10;;;;;;5033785;28;20033;-62
2022/06/07 02:55:39;;;;;;;7.63;2.58;;;18.60;81.30;;;;;;5033903;28;20121;-62
2022/06/07 02:58:05;;;;;;;6.57;2.95;;;18.60;81.50;;;;;;5033779;28;20518;-61
2022/06/07 03:00:31;;;;;;;4.40;2.70;;;18.60;81.50;;;;;;5033695;28;20029;-61
2022/06/07 03:02:56;;;;;;;5.57;2.60;;;18.50;81.80;;;;;;5033694;28;20462;-62
2022/06/07 03:05:23;;;;;;;7.60;3.28;;;18.50;81.70;;;;;;5033443;28;20478;-60
2022/06/07 03:07:49;;;;;;;6.88;3.03;;;18.50;82.00;;;;;;5033597;28;20033;-62
2022/06/07 03:10:15;;;;;;;7.03;3.47;;;18.50;81.80;;;;;;5033568;28;20112;-63
2022/06/07 03:12:41;;;;;;;4.57;3.13;;;18.50;81.80;;;;;;5033526;28;20100;-68
2022/06/07 03:15:08;;;;;;;7.47;3.65;;;18.50;81.70;;;;;;5033278;28;20454;-65
2022/06/07 03:17:34;;;;;;;5.80;2.60;;;18.50;81.80;;;;;;5033566;28;20029;-63
2022/06/07 03:19:59;;;;;;;6.68;3.30;;;18.50;82.20;;;;;;5033352;28;20025;-64
2022/06/07 03:22:25;;;;;;;6.80;3.13;;;18.40;82.00;;;;;;5033061;28;20025;-69
2022/06/07 03:24:51;;;;;;;5.65;3.45;;;18.40;82.00;;;;;;5033485;28;20018;-68
2022/06/07 03:27:16;;;;;;;6.40;3.08;;;18.40;82.10;;;;;;5033058;28;20033;-63
2022/06/07 03:29:42;;;;;;;5.30;2.70;;;18.40;81.90;;;;;;5033571;28;20037;-61
2022/06/07 03:32:08;;;;;;;5.15;2.90;;;18.40;81.70;;;;;;5033543;28;20017;-61
2022/06/07 03:34:35;;;;;;;5.18;3.38;;;18.40;81.70;;;;;;5047392;28;20025;-60
2022/06/07 03:37:01;;;;;;;6.60;3.92;;;18.40;81.50;;;;;;5052670;28;20033;-64
2022/06/07 03:39:26;;;;;;;6.75;3.47;;;18.40;81.60;;;;;;5049918;28;20461;-61
2022/06/07 03:41:52;;;;;;;8.48;3.65;;;18.40;81.70;;;;;;5052725;28;20025;-63
2022/06/07 03:44:18;;;;;;;5.22;3.25;;;18.40;81.70;;;;;;5052882;28;20025;-60
2022/06/07 03:46:45;;;;;;;7.70;3.53;;;18.40;81.80;;;;;;5052865;28;20043;-61
2022/06/07 03:49:11;;;;;;;4.53;3.60;;;18.40;81.90;;;;;;5052403;28;20029;-61
2022/06/07 03:51:37;;;;;;;6.43;3.63;;;18.30;82.00;;;;;;5052981;28;20049;-66
2022/06/07 03:54:04;;;;;;;7.55;3.50;;;18.40;82.00;;;;;;5041297;28;20025;-61
2022/06/07 03:56:30;;;;;;;5.93;3.35;;;18.30;82.20;;;;;;5059232;28;20040;-63
2022/06/07 03:58:56;;;;;;;9.65;3.70;;;18.30;82.10;;;;;;5058992;28;20150;-62
2022/06/07 04:01:24;;;;;;;7.57;3.60;;;18.30;82.10;;;;;;5059621;28;20085;-61
2022/06/07 04:03:52;;;;;;;5.68;2.90;;;18.30;82.20;;;;;;5059255;28;20017;-60
2022/06/07 04:06:32;;;;;;;4.60;3.53;;;18.30;82.40;;;;;;5059273;28;20036;-65
2022/06/07 04:08:58;;;;;;;6.22;3.28;;;18.30;82.40;;;;;;5059345;28;20386;-63
2022/06/07 04:11:26;;;;;;;6.03;3.33;;;18.20;82.70;;;;;;5059425;28;20025;-61
2022/06/07 04:13:53;;;;;;;5.07;3.22;;;18.20;82.70;;;;;;5059349;28;20036;-63
2022/06/07 04:16:21;;;;;;;5.03;3.78;;;18.20;82.70;;;;;;5059216;28;20033;-63
2022/06/07 04:18:48;;;;;;;8.05;3.92;;;18.20;82.80;;;;;;5059156;28;20047;-60
2022/06/07 04:21:14;;;;;;;8.38;4.10;;;18.20;83.00;;;;;;5059260;28;20029;-67
2022/06/07 04:23:40;;;;;;;6.35;3.67;;;18.20;83.00;;;;;;5059269;28;20025;-62
2022/06/07 04:26:12;;;;;;;5.30;3.40;;;18.20;83.00;;;;;;5059301;28;20021;-60
2022/06/07 04:28:38;;;;;;;;;;;18.20;83.00;;;;;;5059733;28;20033;-67
2022/06/07 04:31:10;;;;;;;7.63;3.38;;;18.20;82.90;;;;;;5059490;28;19966;-67
2022/06/07 04:33:35;;;;;;;4.65;3.50;;;18.10;83.00;;;;;;5058728;28;20021;-68
2022/06/07 04:36:01;;;;;;;5.45;3.47;;;18.10;83.30;;;;;;5059336;28;20086;-67
2022/06/07 04:38:26;;;;;;;7.45;3.65;;;18.10;83.40;;;;;;5059214;28;20052;-67
2022/06/07 04:40:52;;;;;;;7.45;4.03;;;18.10;83.60;;;;;;5059170;28;20025;-67
2022/06/07 04:43:17;;;;;;;7.57;3.83;;;18.10;83.80;;;;;;5059184;28;20079;-68
2022/06/07 04:45:43;;;;;;;9.43;4.05;;;18.10;83.80;;;;;;5059028;28;20143;-67
2022/06/07 04:48:10;;;;;;;6.50;3.17;;;18.10;83.90;;;;;;5058807;28;20033;-66
2022/06/07 04:50:36;;;;;;;7.28;3.78;;;18.10;84.10;;;;;;5059122;28;20044;-68
2022/06/07 04:53:02;;;;;;;7.03;3.22;;;18.10;84.20;;;;;;5059113;28;20461;-68
2022/06/07 04:55:28;;;;;;;7.80;3.88;;;18.10;84.20;;;;;;5059090;28;20021;-61
2022/06/07 04:57:53;;;;;;;6.00;3.30;;;18.10;84.40;;;;;;5059353;28;20017;-68
2022/06/07 05:00:20;;;;;;;5.93;3.70;;;18.10;84.20;;;;;;5056930;28;20390;-67
2022/06/07 05:02:47;;;;;;;9.00;4.25;;;18.10;84.40;;;;;;5057272;28;20458;-66
2022/06/07 05:05:14;;;;;;;9.07;4.35;;;18.10;84.30;;;;;;5050811;28;20487;-67
2022/06/07 05:07:39;;;;;;;6.05;3.75;;;18.10;84.40;;;;;;5049224;28;20037;-67
2022/06/07 05:10:11;;;;;;;6.45;4.00;;;18.10;84.40;;;;;;5040968;28;20071;-60
2022/06/07 05:12:37;;;;;;;8.80;4.05;;;18.20;84.60;;;;;;5044881;28;20029;-62
2022/06/07 05:15:05;;;;;;;5.97;4.18;;;18.10;84.70;;;;;;5042658;28;20028;-65
2022/06/07 05:17:31;;;;;;;6.57;3.65;;;18.10;84.70;;;;;;5050844;28;20079;-63
2022/06/07 05:19:57;;;;;;;5.25;3.83;;;18.10;84.50;;;;;;5041094;28;20052;-62
2022/06/07 05:22:24;;;;;;;7.95;4.18;;;18.20;85.00;;;;;;5038347;28;20035;-65
2022/06/07 05:24:50;;;;;;;6.30;3.80;;;18.10;85.00;;;;;;5048133;28;20025;-62
2022/06/07 05:27:20;;;;;;;6.35;3.60;;;18.10;85.20;;;;;;5048732;28;20029;-61
2022/06/07 05:29:49;;;;;;;6.90;3.83;;;18.10;85.30;;;;;;5039248;28;20385;-66
2022/06/07 05:32:16;;;;;;;7.72;4.10;;;18.10;85.60;;;;;;5050862;28;20024;-62
2022/06/07 05:34:42;;;;;;;5.50;3.53;;;18.10;85.90;;;;;;5054451;28;20055;-65
2022/06/07 05:37:10;;;;;;;6.82;4.10;;;18.20;86.50;;;;;;5050391;28;20028;-61
2022/06/07 05:39:36;;;;;;;6.97;3.45;;;18.20;87.00;;;;;;5051891;28;20024;-74
2022/06/07 05:42:02;;;;;;;6.68;3.30;;;18.30;86.50;;;;;;5050281;28;20358;-66
2022/06/07 05:44:28;;;;;;;6.15;3.55;;;18.20;86.00;;;;;;5051342;28;20032;-65
2022/06/07 05:46:54;;;;;;;5.18;1.80;;;18.30;86.40;;;;;;5053830;28;20060;-60
2022/06/07 05:49:20;;;;;;;4.00;1.73;;;18.30;86.80;;;;;;5039756;28;20104;-67
2022/06/07 05:51:46;;;;;;;4.72;1.80;;;18.30;87.20;;;;;;5052768;28;20434;-67
2022/06/07 05:54:13;;;;;;;3.70;1.65;;;18.30;87.30;;;;;;5036984;28;20489;-62
2022/06/07 05:56:40;;;;;;;4.35;2.15;;;18.40;87.50;;;;;;5051641;28;20360;-62
2022/06/07 05:59:06;;;;;;;8.07;2.10;;;18.50;87.40;;;;;;5044831;28;20045;-66
2022/06/07 06:01:33;;;;;;;5.78;2.30;;;18.50;86.80;;;;;;5048466;28;20068;-66
2022/06/07 06:03:58;;;;;;;5.97;1.88;;;18.50;86.50;;;;;;5050482;28;20079;-65
2022/06/07 06:06:25;;;;;;;7.38;2.47;;;18.50;86.40;;;;;;5048817;28;20033;-67
2022/06/07 06:11:36;;;;;;;7.00;2.75;;;18.60;86.10;;;;;;5049325;28;20090;-65
2022/06/07 06:14:02;;;;;;;5.85;2.80;;;18.60;85.60;;;;;;5047559;28;20529;-65
2022/06/07 06:16:28;;;;;;;7.70;2.63;;;18.70;85.40;;;;;;5050717;28;20040;-66
2022/06/07 06:18:57;;;;;;;4.63;1.75;;;18.70;85.50;;;;;;5052432;28;20385;-67
2022/06/07 06:21:27;;;;;;;6.55;2.00;;;18.70;85.60;;;;;;5053216;28;20032;-66
2022/06/07 06:23:53;;;;;;;9.07;2.65;;;18.80;85.30;;;;;;5053719;28;20025;-64
2022/06/07 06:26:20;;;;;;;5.50;1.95;;;18.80;85.20;;;;;;5052730;28;20029;-67
2022/06/07 06:28:46;;;;;;;12.50;2.90;;;18.80;85.30;;;;;;5053220;28;20075;-65
2022/06/07 06:31:13;;;;;;;8.93;2.40;;;18.90;85.00;;;;;;5053139;28;20249;-64
2022/06/07 06:33:48;;;;;;;8.32;2.63;;;18.90;85.00;;;;;;5053833;28;20497;-67
2022/06/07 06:36:16;;;;;;;7.60;2.60;;;18.90;84.60;;;;;;5053766;28;20508;-65
2022/06/07 06:38:43;;;;;;;5.80;2.47;;;18.90;84.70;;;;;;5054068;28;20374;-63
2022/06/07 06:41:15;;;;;;;6.70;2.30;;;18.90;84.60;;;;;;5053980;28;20013;-62
2022/06/07 06:43:41;;;;;;;4.95;1.70;;;19.00;85.20;;;;;;5053807;28;20469;-66
2022/06/07 06:46:11;;;;;;;5.38;1.60;;;19.00;84.70;;;;;;5053755;28;20017;-67
2022/06/07 06:48:37;;;;;;;5.10;1.92;;;19.00;84.70;;;;;;5053832;28;20033;-62
2022/06/07 06:51:06;;;;;;;3.13;1.60;;;19.00;84.60;;;;;;5053767;28;20032;-66
2022/06/07 06:53:33;;;;;;;3.53;1.80;;;19.10;84.40;;;;;;5053763;28;20025;-60
2022/06/07 06:55:58;;;;;;;6.07;2.50;;;19.10;84.30;;;;;;5053260;28;20021;-62
2022/06/07 06:58:25;;;;;;;5.25;2.00;;;19.10;84.40;;;;;;5053295;28;20496;-63
2022/06/07 07:01:15;;;;;;;6.90;2.78;;;19.10;84.30;;;;;;5053825;28;20029;-66
2022/06/07 07:03:42;;;;;;;4.25;2.40;;;19.10;83.60;;;;;;5053360;28;20070;-64
2022/06/07 07:06:10;;;;;;;4.65;2.50;;;19.10;84.30;;;;;;5053474;28;20057;-66
2022/06/07 07:08:37;;;;;;;6.15;2.13;;;19.10;84.40;;;;;;5053418;28;20496;-67
2022/06/07 07:11:07;;;;;;;4.15;1.55;;;19.20;84.50;;;;;;5053500;28;20025;-67
2022/06/07 07:13:33;;;;;;;6.90;1.92;;;19.20;84.40;;;;;;5053189;28;20021;-64
2022/06/07 07:15:59;;;;;;;3.75;1.65;;;19.20;84.10;;;;;;5053323;28;20033;-66
2022/06/07 07:18:25;;;;;;;3.17;1.23;;;19.20;84.70;;;;;;5053302;28;20017;-67
2022/06/07 07:20:51;;;;;;;4.90;1.80;;;19.30;84.00;;;;;;5053230;28;20084;-63
2022/06/07 07:23:17;;;;;;;4.13;1.52;;;19.30;83.90;;;;;;5053276;28;20523;-63
2022/06/07 07:25:43;;;;;;;7.32;1.63;;;19.30;84.00;;;;;;5035204;28;20025;-61
2022/06/07 07:28:08;;;;;;;4.00;1.20;;;19.30;84.00;;;;;;5052558;28;20033;-61
2022/06/07 07:30:34;;;;;;;3.85;1.30;;;19.30;83.90;;;;;;5053130;28;20155;-61
2022/06/07 07:32:59;;;;;;;5.00;1.42;;;19.30;83.80;;;;;;5053357;28;20028;-62
2022/06/07 07:35:26;;;;;;;4.88;1.55;;;19.30;83.60;;;;;;5035217;28;20385;-60
2022/06/07 07:37:51;;;;;;;3.13;1.40;;;19.30;83.60;;;;;;5053334;28;20029;-61
2022/06/07 07:40:17;;;;;;;5.05;1.20;;;19.40;83.60;;;;;;5052920;28;20424;-61
2022/06/07 07:42:42;;;;;;;4.57;1.45;;;19.40;83.60;;;;;;5052991;28;20025;-61
2022/06/07 07:45:09;;;;;;;6.82;1.95;;;19.40;83.50;;;;;;5052943;28;20040;-61
2022/06/07 07:47:35;;;;;;;3.53;1.52;;;19.40;83.70;;;;;;5052653;28;20041;-61
2022/06/07 07:50:01;;;;;;;5.28;1.75;;;19.40;83.70;;;;;;5052940;28;20036;-62
2022/06/07 07:52:27;;;;;;;3.33;1.50;;;19.40;83.60;;;;;;5052926;28;20056;-61
2022/06/07 07:54:53;;;;;;;3.58;1.25;;;19.40;83.40;;;;;;5052834;28;20017;-61
2022/06/07 07:57:18;;;;;;;3.58;1.40;;;19.40;83.60;;;;;;5052875;28;20040;-61
2022/06/07 07:59:44;;;;;;;2.70;1.33;;;19.40;83.50;;;;;;5052764;28;20055;-61
2022/06/07 08:02:17;;;;;;;4.38;1.55;;;19.40;83.40;;;;;;5052879;28;20032;-61
2022/06/07 08:04:43;;;;;;;3.55;1.20;;;19.40;83.40;;;;;;5052743;28;20021;-64
2022/06/07 08:07:08;;;;;;;2.97;1.15;;;19.50;83.30;;;;;;5052930;28;20032;-62
2022/06/07 08:09:34;;;;;;;3.05;1.40;;;19.50;83.30;;;;;;5052429;28;20155;-61
2022/06/07 08:12:05;;;;;;;3.90;1.50;;;19.50;83.20;;;;;;5053054;28;20100;-61
2022/06/07 08:14:32;;;;;;;3.78;1.20;;;19.60;83.20;;;;;;5052507;28;20035;-61
2022/06/07 08:16:57;;;;;;;2.72;1.38;;;19.50;83.10;;;;;;5052537;28;20041;-62
2022/06/07 08:19:23;;;;;;;4.63;1.00;;;19.60;83.20;;;;;;5052449;28;20021;-62
2022/06/07 08:21:50;;;;;;;4.10;1.52;;;19.60;83.10;;;;;;5052797;28;20024;-61
2022/06/07 08:24:17;;;;;;;3.88;1.05;;;19.60;83.10;;;;;;5052375;28;20025;-63
2022/06/07 08:26:43;;;;;;;4.35;1.30;;;19.60;83.00;;;;;;5052373;28;20059;-61
2022/06/07 08:29:08;;;;;;;3.45;1.27;;;19.60;83.10;;;;;;5052595;28;20488;-61
2022/06/07 08:31:34;;;;;;;2.85;1.00;;;19.60;83.00;;;;;;5052687;28;20017;-61
2022/06/07 08:39:29;;;;;;;3.53;1.20;;;19.70;82.80;;;;;;5054592;28;20454;-62
2022/06/07 08:41:59;;;;;;;3.13;1.00;;;19.70;82.70;;;;;;5056365;28;20022;-61
2022/06/07 08:44:48;;;;;;;2.28;0.98;;;19.70;82.60;;;;;;5056118;28;20029;-61
2022/06/07 08:47:19;;;;;;;4.30;1.10;;;19.80;82.20;;;;;;5038326;28;20037;-62
2022/06/07 08:49:45;;;;;;;2.88;0.90;;;19.70;82.80;;;;;;5037909;28;20095;-61
2022/06/07 08:52:16;;;;;;;3.03;0.80;;;19.80;82.60;;;;;;5052895;28;20037;-61
2022/06/07 08:54:43;;;;;;;3.28;1.02;;;19.80;82.60;;;;;;5037269;28;20556;-62
2022/06/07 08:57:23;;;;;;;5.40;1.35;;;19.80;82.70;;;;;;5055755;28;20025;-62
2022/06/07 08:59:54;;;;;;;2.22;1.10;;;19.80;83.20;;;;;;5055902;28;20021;-65
2022/06/07 09:02:41;;;;;;;2.30;0.88;;;19.80;83.80;;;;;;5052922;28;20059;-67
2022/06/07 09:05:11;;;;;;;2.40;0.82;;;19.90;83.30;;;;;;5038699;28;20017;-63
2022/06/07 09:07:36;;;;;;;4.20;0.93;;;19.90;83.40;;;;;;5049244;28;20061;-61
2022/06/07 09:13:16;;;;;;;2.15;0.73;;;20.00;83.80;;;;;;5042116;28;20102;-63
2022/06/07 09:15:45;;;;;;;4.80;0.90;;;20.00;83.90;;;;;;5044481;28;20083;-62
2022/06/07 09:18:14;;;;;;;5.18;1.38;;;20.00;84.40;;;;;;5043631;28;20033;-61
2022/06/07 09:20:44;;;;;;;3.15;0.90;;;20.00;84.60;;;;;;5047535;28;20026;-60
2022/06/07 09:23:25;;;;;;;1.83;0.80;;;20.00;84.70;;;;;;5045256;28;20461;-60
2022/06/07 09:25:55;;;;;;;2.08;0.77;;;20.00;84.50;;;;;;5044331;28;20100;-60
2022/06/07 09:28:28;;;;;;;2.13;0.77;;;20.00;84.90;;;;;;5034223;28;20051;-60
2022/06/07 09:30:59;;;;;;;3.17;0.90;;;20.00;85.00;;;;;;5041876;28;20021;-60
2022/06/07 09:33:28;;;;;;;3.60;0.80;;;20.10;85.50;;;;;;5041613;28;20057;-61
2022/06/07 09:35:58;;;;;;;2.33;0.60;;;20.10;85.40;;;;;;5050047;28;20055;-60
2022/06/07 09:38:34;;;;;;;4.00;0.60;;;20.10;85.20;;;;;;5049621;28;20033;-60
2022/06/07 09:44:12;;;;;;;2.42;0.75;;;20.20;85.10;;;;;;5041541;28;20031;-61
2022/06/07 09:46:37;;;;;;;1.85;0.75;;;20.20;85.40;;;;;;5031289;28;20133;-62
2022/06/07 09:49:03;;;;;;;2.15;0.60;;;20.20;85.30;;;;;;5042922;28;20095;-62
2022/06/07 09:51:38;;;;;;;1.80;0.60;;;20.20;85.30;;;;;;5052879;28;20021;-61
2022/06/07 09:54:19;;;;;;;2.33;0.88;;;20.20;85.30;;;;;;5040207;28;20435;-60
2022/06/07 09:57:14;;;;;;;2.67;0.75;;;20.20;85.20;;;;;;5053239;28;20033;-61
2022/06/07 10:00:05;;;;;;;1.58;0.80;;;20.30;85.40;;;;;;5038996;28;20032;-60
2022/06/07 10:02:54;;;;;;;2.20;0.70;;;20.30;85.60;;;;;;5039251;28;20071;-61
2022/06/07 10:05:41;;;;;;;2.50;0.70;;;20.30;85.30;;;;;;5044288;28;20025;-61
2022/06/07 10:08:38;;;;;;;1.33;0.70;;;20.30;85.70;;;;;;5037149;28;20041;-61
2022/06/07 10:11:09;;;;;;;3.25;0.75;;;20.40;85.10;;;;;;5026894;28;20026;-61
2022/06/07 10:13:59;;;;;;;2.75;0.68;;;20.40;86.10;;;;;;5047606;28;20425;-61
2022/06/07 10:16:43;;;;;;;3.15;0.68;;;20.40;86.20;;;;;;5037235;28;20033;-62
2022/06/07 10:19:42;;;;;;;4.07;0.82;;;20.40;86.20;;;;;;5042388;28;20167;-61
2022/06/07 10:22:14;;;;;;;2.35;0.70;;;20.40;86.30;;;;;;5049163;28;20423;-61
2022/06/07 10:24:58;;;;;;;1.42;0.65;;;20.40;86.40;;;;;;5039984;28;20109;-61
2022/06/07 10:27:47;;;;;;;1.48;0.57;;;20.40;86.30;;;;;;5053170;28;20481;-62
2022/06/07 10:30:26;;;;;;;1.48;0.60;;;20.50;86.40;;;;;;5048497;28;20028;-61
2022/06/07 10:33:06;;;;;;;1.90;0.77;;;20.50;86.80;;;;;;5040866;28;20033;-61
2022/06/07 10:36:13;;;;;;;2.63;1.10;;;20.50;87.00;;;;;;5052986;28;20067;-61
2022/06/07 10:38:39;;;;;;;3.08;1.10;;;20.50;86.70;;;;;;5052890;28;20103;-62
2022/06/07 10:41:16;;;;;;;2.45;0.90;;;20.50;87.50;;;;;;5052290;28;20017;-61
2022/06/07 10:44:13;;;;;;;2.35;1.08;;;20.50;87.30;;;;;;5018971;28;20059;-61
2022/06/07 10:46:42;;;;;;;2.63;0.88;;;20.60;87.20;;;;;;5053011;28;20116;-61
2022/06/07 10:49:16;;;;;;;2.63;0.82;;;20.60;87.60;;;;;;5052252;28;20057;-60
2022/06/07 10:54:43;;;;;;;1.00;0.50;;;20.60;87.40;;;;;;5053154;28;20040;-61
2022/06/07 10:57:19;;;;;;;2.08;0.63;;;20.60;87.00;;;;;;5053177;28;20036;-61
2022/06/07 10:59:45;;;;;;;1.20;0.52;;;20.70;87.30;;;;;;5051900;28;20110;-63
2022/06/07 11:02:24;;;;;;;1.40;0.70;;;20.70;87.20;;;;;;5051917;28;20017;-65
2022/06/07 11:10:39;;;;;;;3.58;0.70;;;20.70;86.90;;;;;;5052226;28;20559;-64
2022/06/07 11:13:16;;;;;;;3.15;0.73;;;20.70;86.80;;;;;;5052194;28;20029;-67
2022/06/07 11:16:18;;;;;;;1.55;0.60;;;20.80;86.70;;;;;;5052811;28;20196;-61
2022/06/07 11:18:44;;;;;;;2.65;0.63;;;20.80;86.40;;;;;;5051423;28;20029;-66
2022/06/07 11:21:25;;;;;;;2.38;0.88;;;20.80;86.90;;;;;;5052302;28;20493;-61
2022/06/07 11:24:02;;;;;;;2.20;0.73;;;20.80;86.70;;;;;;5052249;28;20391;-61
2022/06/07 11:26:58;;;;;;;1.80;0.50;;;20.80;86.90;;;;;;5045780;28;20113;-60
2022/06/07 11:29:32;;;;;;;3.08;0.73;;;20.80;86.70;;;;;;5015591;28;20037;-62
2022/06/07 11:32:00;;;;;;;1.52;0.80;;;20.80;86.80;;;;;;5045571;28;20119;-62
2022/06/07 11:34:31;;;;;;;1.27;0.50;;;20.80;87.10;;;;;;5042678;28;20116;-61
2022/06/07 11:37:17;;;;;;;2.00;0.70;;;20.80;86.90;;;;;;5033749;28;20024;-62
2022/06/07 11:39:57;;;;;;;2.05;0.73;;;20.90;86.40;;;;;;5026058;28;20041;-62
2022/06/07 11:42:34;;;;;;;1.73;0.40;;;20.90;86.60;;;;;;5047622;28;20036;-62
2022/06/07 11:45:03;;;;;;;1.35;0.50;;;20.90;86.60;;;;;;5043979;28;20063;-61
2022/06/07 11:48:01;;;;;;;1.92;0.70;;;20.90;86.70;;;;;;5052121;28;20047;-62
2022/06/07 11:50:42;;;;;;;1.65;0.55;;;20.90;86.30;;;;;;5051878;28;20053;-61
2022/06/07 11:53:25;;;;;;;1.85;0.82;;;21.00;86.60;;;;;;5051843;28;20021;-61
2022/06/07 11:56:11;;;;;;;2.95;0.60;;;21.00;86.50;;;;;;5034030;28;20027;-61
2022/06/07 11:59:01;;;;;;;1.85;0.75;;;21.00;86.50;;;;;;5045607;28;20036;-61
2022/06/07 12:01:40;;;;;;;2.22;0.80;;;21.00;86.20;;;;;;5042585;28;20029;-61
2022/06/07 12:04:52;;;;;;;1.73;0.70;;;21.00;86.60;;;;;;5034219;28;20022;-62
2022/06/07 12:07:29;;;;;;;1.00;0.60;;;21.00;86.10;;;;;;5021650;28;20029;-66
2022/06/07 12:09:58;;;;;;;2.40;0.75;;;21.00;87.20;;;;;;5051151;28;20478;-66
2022/06/07 12:12:31;;;;;;;2.38;0.60;;;21.10;86.40;;;;;;5047361;28;20037;-65
2022/06/07 12:15:21;;;;;;;1.42;0.68;;;21.00;86.20;;;;;;5048286;28;20055;-64
2022/06/07 12:17:57;;;;;;;0.95;0.30;;;21.10;86.00;;;;;;5044327;28;20071;-66
2022/06/07 12:20:33;;;;;;;2.22;0.75;;;21.10;86.20;;;;;;5047850;28;20078;-66
2022/06/07 12:23:25;;;;;;;1.95;0.68;;;21.10;85.80;;;;;;5037507;28;20117;-66
2022/06/07 12:25:55;;;;;;;1.55;0.70;;;21.10;85.40;;;;;;5031556;28;20112;-66
2022/06/07 12:28:28;;;;;;;1.77;0.70;;;21.10;86.00;;;;;;5053409;28;20033;-66
2022/06/07 12:30:54;;;;;;;2.80;0.70;;;21.20;85.80;;;;;;5054243;28;20036;-63
2022/06/07 12:33:29;;;;;;;2.05;0.80;;;21.20;86.10;;;;;;5045495;28;20021;-61
2022/06/07 12:36:01;;;;;;;1.52;0.80;;;21.20;85.90;;;;;;5055557;28;20469;-62
2022/06/07 12:38:28;;;;;;;2.85;0.82;;;21.20;85.70;;;;;;5036921;28;20420;-65
2022/06/07 12:41:01;;;;;;;2.20;0.77;;;21.20;86.00;;;;;;5054664;28;20115;-67
2022/06/07 12:43:31;;;;;;;3.33;1.15;;;21.20;86.10;;;;;;5049585;28;20018;-64
2022/06/07 12:46:00;;;;;;;4.95;1.30;;;21.20;86.10;;;;;;5035068;28;20021;-69
2022/06/07 12:48:29;;;;;;;2.80;1.20;;;21.20;86.10;;;;;;5044223;28;20072;-64
2022/06/07 12:50:55;;;;;;;6.80;2.60;;;21.30;86.80;;;;;;5053909;28;20025;-66
2022/06/07 12:53:24;;;;;;;9.07;2.40;;;21.30;86.60;;;;;;5054462;28;20982;-67
2022/06/07 12:56:02;;;;;;;7.15;1.90;;;21.30;86.60;;;;;;5034580;28;20021;-64
2022/06/07 12:58:31;;;;;;;4.85;1.90;;;21.30;86.80;;;;;;5040667;28;20056;-64
2022/06/07 13:00:57;;;;;;;4.43;1.95;;;21.30;86.80;;;;;;5036233;28;20119;-67
2022/06/07 13:03:36;;;;;;;4.38;1.45;;;21.30;86.90;;;;;;5035478;28;20116;-68
2022/06/07 13:06:05;;;;;;;4.40;1.38;;;21.30;86.60;;;;;;5052094;28;20033;-64
2022/06/07 13:08:41;;;;;;;2.13;0.95;;;21.40;86.80;;;;;;5050698;28;20040;-66
2022/06/07 13:11:14;;;;;;;3.88;1.65;;;21.30;86.50;;;;;;5048655;28;20032;-62
2022/06/07 13:13:42;;;;;;;2.88;1.15;;;21.40;87.20;;;;;;5050704;28;20029;-66
2022/06/07 13:16:10;;;;;;;6.18;1.20;;;21.40;86.50;;;;;;5048424;28;20021;-60
2022/06/07 13:18:42;;;;;;;3.80;1.38;;;21.40;86.40;;;;;;5044634;28;20033;-60
2022/06/07 13:21:22;;;;;;;3.28;1.40;;;21.40;86.40;;;;;;5049121;28;20021;-61
2022/06/07 13:23:53;;;;;;;5.15;1.27;;;21.40;86.00;;;;;;5031871;28;20029;-61
2022/06/07 13:26:30;;;;;;;7.65;1.65;;;21.40;86.30;;;;;;5046055;28;20048;-61
2022/06/07 13:29:19;;;;;;;5.28;1.77;;;21.40;86.00;;;;;;5053660;28;20033;-61
2022/06/07 13:31:58;;;;;;;4.25;1.10;;;21.40;86.00;;;;;;5043700;28;20037;-62
2022/06/07 13:34:45;;;;;;;5.03;1.20;;;21.50;86.10;;;;;;5034753;28;20018;-64